sensor_id;sensor_type;location;lat;lon;timestamp;pressure;altitude;pressure_sealevel;temperature;humidity
59608;BME280;45426;44.726;10.390;2023-04-04T00:00:30;100433.69;;;8.20;100.00
59608;BME280;45426;44.726;10.390;2023-04-04T00:02:55;100436.75;;;7.78;100.00
59608;BME280;45426;44.726;10.390;2023-04-04T00:05:21;100436.91;;;7.82;100.00
59608;BME280;45426;44.726;10.390;2023-04-04T00:07:47;100442.31;;;7.42;100.00
59608;BME280;45426;44.726;10.390;2023-04-04T00:10:13;100436.41;;;7.71;100.00
59608;BME280;45426;44.726;10.390;2023-04-04T00:12:39;100439.47;;;7.87;100.00
59608;BME280;45426;44.726;10.390;2023-04-04T00:15:04;100437.06;;;7.85;100.00
59608;BME280;45426;44.726;10.390;2023-04-04T00:17:30;100444.28;;;7.58;100.00
59608;BME280;45426;44.726;10.390;2023-04-04T00:19:55;100434.59;;;7.57;100.00
59608;BME280;45426;44.726;10.390;2023-04-04T00:22:22;100428.13;;;7.36;100.00
59608;BME280;45426;44.726;10.390;2023-04-04T00:24:47;100438.38;;;7.16;100.00
59608;BME280;45426;44.726;10.390;2023-04-04T00:27:13;100440.72;;;7.18;100.00
59608;BME280;45426;44.726;10.390;2023-04-04T00:29:38;100442.78;;;6.90;100.00
59608;BME280;45426;44.726;10.390;2023-04-04T00:32:04;100445.03;;;7.19;100.00
59608;BME280;45426;44.726;10.390;2023-04-04T00:34:29;100444.75;;;7.21;100.00
59608;BME280;45426;44.726;10.390;2023-04-04T00:36:55;100449.66;;;6.96;100.00
59608;BME280;45426;44.726;10.390;2023-04-04T00:39:20;100451.50;;;7.09;100.00
59608;BME280;45426;44.726;10.390;2023-04-04T00:41:48;100452.28;;;7.10;100.00
59608;BME280;45426;44.726;10.390;2023-04-04T00:44:13;100450.50;;;7.28;100.00
59608;BME280;45426;44.726;10.390;2023-04-04T00:46:39;100459.09;;;7.30;100.00
59608;BME280;45426;44.726;10.390;2023-04-04T00:49:05;100462.97;;;6.92;100.00
59608;BME280;45426;44.726;10.390;2023-04-04T00:51:30;100445.81;;;7.11;100.00
59608;BME280;45426;44.726;10.390;2023-04-04T00:53:56;100454.03;;;7.06;100.00
59608;BME280;45426;44.726;10.390;2023-04-04T00:56:22;100457.81;;;7.05;100.00
59608;BME280;45426;44.726;10.390;2023-04-04T00:58:48;100459.63;;;7.41;100.00
59608;BME280;45426;44.726;10.390;2023-04-04T01:01:13;100460.97;;;7.52;100.00
59608;BME280;45426;44.726;10.390;2023-04-04T01:03:39;100455.91;;;7.59;100.00
59608;BME280;45426;44.726;10.390;2023-04-04T01:06:06;100458.94;;;7.57;100.00
59608;BME280;45426;44.726;10.390;2023-04-04T01:08:35;100457.84;;;7.36;100.00
59608;BME280;45426;44.726;10.390;2023-04-04T01:11:01;100466.28;;;6.89;100.00
59608;BME280;45426;44.726;10.390;2023-04-04T01:13:27;100453.06;;;7.33;100.00
59608;BME280;45426;44.726;10.390;2023-04-04T01:15:53;100458.66;;;7.14;100.00
59608;BME280;45426;44.726;10.390;2023-04-04T01:18:20;100447.16;;;6.99;100.00
59608;BME280;45426;44.726;10.390;2023-04-04T01:21:00;100450.16;;;7.21;100.00
59608;BME280;45426;44.726;10.390;2023-04-04T01:23:35;100458.00;;;7.08;100.00
59608;BME280;45426;44.726;10.390;2023-04-04T01:26:07;100458.63;;;7.05;100.00
59608;BME280;45426;44.726;10.390;2023-04-04T01:28:36;100458.13;;;7.03;100.00
59608;BME280;45426;44.726;10.390;2023-04-04T01:31:02;100450.00;;;7.48;100.00
59608;BME280;45426;44.726;10.390;2023-04-04T01:33:36;100453.69;;;7.30;100.00
59608;BME280;45426;44.726;10.390;2023-04-04T01:36:20;100454.91;;;7.24;100.00
59608;BME280;45426;44.726;10.390;2023-04-04T01:38:55;100456.03;;;7.00;100.00
59608;BME280;45426;44.726;10.390;2023-04-04T01:41:24;100449.25;;;7.34;100.00
59608;BME280;45426;44.726;10.390;2023-04-04T01:43:51;100450.44;;;7.19;100.00
59608;BME280;45426;44.726;10.390;2023-04-04T01:46:16;100452.19;;;7.46;100.00
59608;BME280;45426;44.726;10.390;2023-04-04T01:48:44;100451.13;;;7.25;100.00
59608;BME280;45426;44.726;10.390;2023-04-04T01:51:10;100462.03;;;6.74;100.00
59608;BME280;45426;44.726;10.390;2023-04-04T01:53:36;100467.94;;;6.76;100.00
59608;BME280;45426;44.726;10.390;2023-04-04T01:56:01;100461.75;;;6.62;100.00
59608;BME280;45426;44.726;10.390;2023-04-04T01:58:27;100461.25;;;6.96;100.00
59608;BME280;45426;44.726;10.390;2023-04-04T02:00:52;100467.81;;;7.27;100.00
59608;BME280;45426;44.726;10.390;2023-04-04T02:03:17;100461.06;;;7.15;100.00
59608;BME280;45426;44.726;10.390;2023-04-04T02:05:43;100464.53;;;6.85;100.00
59608;BME280;45426;44.726;10.390;2023-04-04T02:08:08;100460.50;;;6.82;100.00
59608;BME280;45426;44.726;10.390;2023-04-04T02:10:34;100458.25;;;6.75;100.00
59608;BME280;45426;44.726;10.390;2023-04-04T02:12:59;100451.69;;;7.13;100.00
59608;BME280;45426;44.726;10.390;2023-04-04T02:15:25;100462.91;;;7.06;100.00
59608;BME280;45426;44.726;10.390;2023-04-04T02:17:50;100455.91;;;6.83;100.00
59608;BME280;45426;44.726;10.390;2023-04-04T02:20:16;100464.22;;;6.50;100.00
59608;BME280;45426;44.726;10.390;2023-04-04T02:22:52;100455.63;;;6.48;100.00
59608;BME280;45426;44.726;10.390;2023-04-04T02:25:18;100451.66;;;6.31;100.00
59608;BME280;45426;44.726;10.390;2023-04-04T02:27:44;100452.88;;;6.61;100.00
59608;BME280;45426;44.726;10.390;2023-04-04T02:30:10;100451.31;;;6.47;100.00
59608;BME280;45426;44.726;10.390;2023-04-04T02:32:35;100456.72;;;6.47;100.00
59608;BME280;45426;44.726;10.390;2023-04-04T02:35:02;100458.03;;;6.35;100.00
59608;BME280;45426;44.726;10.390;2023-04-04T02:37:28;100454.72;;;6.75;100.00
59608;BME280;45426;44.726;10.390;2023-04-04T02:39:54;100462.28;;;6.64;100.00
59608;BME280;45426;44.726;10.390;2023-04-04T02:42:19;100458.72;;;6.41;100.00
59608;BME280;45426;44.726;10.390;2023-04-04T02:44:45;100453.13;;;6.51;100.00
59608;BME280;45426;44.726;10.390;2023-04-04T02:47:10;100453.97;;;6.24;100.00
59608;BME280;45426;44.726;10.390;2023-04-04T02:49:36;100454.13;;;6.78;100.00
59608;BME280;45426;44.726;10.390;2023-04-04T02:52:01;100448.63;;;6.47;100.00
59608;BME280;45426;44.726;10.390;2023-04-04T02:54:27;100449.38;;;6.61;100.00
59608;BME280;45426;44.726;10.390;2023-04-04T02:56:52;100446.06;;;6.41;100.00
59608;BME280;45426;44.726;10.390;2023-04-04T02:59:17;100446.78;;;6.06;100.00
59608;BME280;45426;44.726;10.390;2023-04-04T03:01:43;100448.63;;;6.47;100.00
59608;BME280;45426;44.726;10.390;2023-04-04T03:04:08;100448.25;;;6.26;100.00
59608;BME280;45426;44.726;10.390;2023-04-04T03:06:34;100457.06;;;6.03;100.00
59608;BME280;45426;44.726;10.390;2023-04-04T03:09:00;100461.84;;;5.93;100.00
59608;BME280;45426;44.726;10.390;2023-04-04T03:11:25;100464.63;;;6.43;100.00
59608;BME280;45426;44.726;10.390;2023-04-04T03:13:51;100469.13;;;5.92;100.00
59608;BME280;45426;44.726;10.390;2023-04-04T03:16:17;100467.16;;;5.98;100.00
59608;BME280;45426;44.726;10.390;2023-04-04T03:18:44;100469.22;;;5.87;100.00
59608;BME280;45426;44.726;10.390;2023-04-04T03:21:11;100464.03;;;5.63;100.00
59608;BME280;45426;44.726;10.390;2023-04-04T03:23:36;100456.28;;;5.29;100.00
59608;BME280;45426;44.726;10.390;2023-04-04T03:26:02;100457.75;;;5.21;100.00
59608;BME280;45426;44.726;10.390;2023-04-04T03:28:27;100457.81;;;5.49;100.00
59608;BME280;45426;44.726;10.390;2023-04-04T03:30:53;100466.53;;;5.27;100.00
59608;BME280;45426;44.726;10.390;2023-04-04T03:33:18;100470.25;;;4.98;100.00
59608;BME280;45426;44.726;10.390;2023-04-04T03:35:45;100469.00;;;5.09;100.00
59608;BME280;45426;44.726;10.390;2023-04-04T03:38:12;100472.13;;;5.91;100.00
59608;BME280;45426;44.726;10.390;2023-04-04T03:40:37;100477.06;;;6.02;100.00
59608;BME280;45426;44.726;10.390;2023-04-04T03:43:05;100478.53;;;5.34;100.00
59608;BME280;45426;44.726;10.390;2023-04-04T03:45:32;100476.41;;;5.78;100.00
59608;BME280;45426;44.726;10.390;2023-04-04T03:47:58;100479.22;;;5.73;100.00
59608;BME280;45426;44.726;10.390;2023-04-04T03:50:24;100479.97;;;6.06;100.00
59608;BME280;45426;44.726;10.390;2023-04-04T03:52:49;100478.16;;;6.01;100.00
59608;BME280;45426;44.726;10.390;2023-04-04T03:55:15;100479.06;;;5.97;100.00
59608;BME280;45426;44.726;10.390;2023-04-04T03:57:40;100479.59;;;5.66;100.00
59608;BME280;45426;44.726;10.390;2023-04-04T04:00:07;100482.88;;;5.16;100.00
59608;BME280;45426;44.726;10.390;2023-04-04T04:02:32;100495.63;;;5.43;100.00
59608;BME280;45426;44.726;10.390;2023-04-04T04:04:58;100490.41;;;4.81;100.00
59608;BME280;45426;44.726;10.390;2023-04-04T04:07:23;100494.91;;;4.86;100.00
59608;BME280;45426;44.726;10.390;2023-04-04T04:09:49;100497.03;;;4.70;100.00
59608;BME280;45426;44.726;10.390;2023-04-04T04:12:14;100491.63;;;5.08;100.00
59608;BME280;45426;44.726;10.390;2023-04-04T04:14:40;100496.13;;;5.13;100.00
59608;BME280;45426;44.726;10.390;2023-04-04T04:17:05;100507.84;;;5.03;100.00
59608;BME280;45426;44.726;10.390;2023-04-04T04:19:31;100503.88;;;4.81;100.00
59608;BME280;45426;44.726;10.390;2023-04-04T04:21:56;100499.00;;;4.21;100.00
59608;BME280;45426;44.726;10.390;2023-04-04T04:24:21;100498.03;;;4.12;100.00
59608;BME280;45426;44.726;10.390;2023-04-04T04:26:47;100501.41;;;4.23;100.00
59608;BME280;45426;44.726;10.390;2023-04-04T04:29:12;100503.13;;;4.57;100.00
59608;BME280;45426;44.726;10.390;2023-04-04T04:31:38;100501.94;;;5.01;100.00
59608;BME280;45426;44.726;10.390;2023-04-04T04:34:07;100499.97;;;5.06;100.00
59608;BME280;45426;44.726;10.390;2023-04-04T04:36:36;100501.44;;;4.99;100.00
59608;BME280;45426;44.726;10.390;2023-04-04T04:39:01;100511.94;;;5.00;100.00
59608;BME280;45426;44.726;10.390;2023-04-04T04:41:27;100504.31;;;4.89;100.00
59608;BME280;45426;44.726;10.390;2023-04-04T04:43:55;100503.44;;;4.74;100.00
59608;BME280;45426;44.726;10.390;2023-04-04T04:46:21;100514.47;;;4.73;100.00
59608;BME280;45426;44.726;10.390;2023-04-04T04:48:46;100509.69;;;4.89;100.00
59608;BME280;45426;44.726;10.390;2023-04-04T04:51:12;100516.94;;;4.88;100.00
59608;BME280;45426;44.726;10.390;2023-04-04T04:53:39;100521.69;;;4.96;100.00
59608;BME280;45426;44.726;10.390;2023-04-04T04:56:04;100524.56;;;4.62;100.00
59608;BME280;45426;44.726;10.390;2023-04-04T04:58:31;100521.59;;;3.96;100.00
59608;BME280;45426;44.726;10.390;2023-04-04T05:00:56;100517.81;;;3.73;100.00
59608;BME280;45426;44.726;10.390;2023-04-04T05:03:22;100526.88;;;4.06;100.00
59608;BME280;45426;44.726;10.390;2023-04-04T05:05:48;100528.13;;;4.38;100.00
59608;BME280;45426;44.726;10.390;2023-04-04T05:08:14;100528.91;;;4.15;100.00
59608;BME280;45426;44.726;10.390;2023-04-04T05:10:39;100527.84;;;4.16;100.00
59608;BME280;45426;44.726;10.390;2023-04-04T05:13:05;100528.56;;;3.97;100.00
59608;BME280;45426;44.726;10.390;2023-04-04T05:15:30;100531.44;;;4.06;100.00
59608;BME280;45426;44.726;10.390;2023-04-04T05:17:56;100530.53;;;3.62;100.00
59608;BME280;45426;44.726;10.390;2023-04-04T05:20:22;100533.59;;;3.80;100.00
59608;BME280;45426;44.726;10.390;2023-04-04T05:22:48;100533.81;;;3.83;100.00
59608;BME280;45426;44.726;10.390;2023-04-04T05:25:13;100538.81;;;3.66;100.00
59608;BME280;45426;44.726;10.390;2023-04-04T05:27:39;100538.97;;;4.28;100.00
59608;BME280;45426;44.726;10.390;2023-04-04T05:30:05;100540.22;;;4.36;100.00
59608;BME280;45426;44.726;10.390;2023-04-04T05:32:32;100546.28;;;4.46;100.00
59608;BME280;45426;44.726;10.390;2023-04-04T05:34:57;100548.97;;;5.28;100.00
59608;BME280;45426;44.726;10.390;2023-04-04T05:37:23;100548.38;;;5.31;100.00
59608;BME280;45426;44.726;10.390;2023-04-04T05:39:48;100554.56;;;5.12;100.00
59608;BME280;45426;44.726;10.390;2023-04-04T05:42:14;100547.28;;;4.75;100.00
59608;BME280;45426;44.726;10.390;2023-04-04T05:44:39;100553.34;;;4.85;100.00
59608;BME280;45426;44.726;10.390;2023-04-04T05:47:05;100556.31;;;5.22;100.00
59608;BME280;45426;44.726;10.390;2023-04-04T05:49:30;100554.47;;;5.69;100.00
59608;BME280;45426;44.726;10.390;2023-04-04T05:51:56;100555.97;;;6.36;100.00
59608;BME280;45426;44.726;10.390;2023-04-04T05:54:21;100563.97;;;6.27;100.00
59608;BME280;45426;44.726;10.390;2023-04-04T05:56:47;100559.97;;;6.11;100.00
59608;BME280;45426;44.726;10.390;2023-04-04T05:59:12;100561.38;;;6.36;100.00
59608;BME280;45426;44.726;10.390;2023-04-04T06:01:38;100566.50;;;6.88;100.00
59608;BME280;45426;44.726;10.390;2023-04-04T06:04:04;100562.66;;;7.16;100.00
59608;BME280;45426;44.726;10.390;2023-04-04T06:06:31;100569.00;;;6.98;100.00
59608;BME280;45426;44.726;10.390;2023-04-04T06:08:56;100568.72;;;6.99;100.00
59608;BME280;45426;44.726;10.390;2023-04-04T06:11:22;100565.81;;;7.86;100.00
59608;BME280;45426;44.726;10.390;2023-04-04T06:13:48;100559.97;;;10.76;100.00
59608;BME280;45426;44.726;10.390;2023-04-04T06:16:13;100557.31;;;10.37;100.00
59608;BME280;45426;44.726;10.390;2023-04-04T06:18:39;100565.22;;;11.23;100.00
59608;BME280;45426;44.726;10.390;2023-04-04T06:21:04;100557.66;;;12.69;100.00
59608;BME280;45426;44.726;10.390;2023-04-04T06:23:30;100553.00;;;15.56;100.00
59608;BME280;45426;44.726;10.390;2023-04-04T06:25:55;100555.31;;;12.96;100.00
59608;BME280;45426;44.726;10.390;2023-04-04T06:28:21;100563.22;;;15.59;100.00
59608;BME280;45426;44.726;10.390;2023-04-04T06:30:46;100560.34;;;17.28;95.22
59608;BME280;45426;44.726;10.390;2023-04-04T06:33:12;100568.28;;;15.77;100.00
59608;BME280;45426;44.726;10.390;2023-04-04T06:35:37;100546.94;;;21.80;70.33
59608;BME280;45426;44.726;10.390;2023-04-04T06:38:03;100561.69;;;20.17;65.95
59608;BME280;45426;44.726;10.390;2023-04-04T06:40:29;100561.13;;;21.16;61.81
59608;BME280;45426;44.726;10.390;2023-04-04T06:42:55;100555.38;;;21.59;60.43
59608;BME280;45426;44.726;10.390;2023-04-04T06:45:26;100565.63;;;20.27;62.35
59608;BME280;45426;44.726;10.390;2023-04-04T06:47:54;100558.00;;;22.33;57.45
59608;BME280;45426;44.726;10.390;2023-04-04T06:50:20;100566.00;;;18.21;67.21
59608;BME280;45426;44.726;10.390;2023-04-04T06:52:47;100567.06;;;18.61;64.63
59608;BME280;45426;44.726;10.390;2023-04-04T06:55:13;100570.94;;;21.24;60.05
59608;BME280;45426;44.726;10.390;2023-04-04T06:57:38;100562.06;;;22.17;54.37
59608;BME280;45426;44.726;10.390;2023-04-04T07:00:04;100561.44;;;24.49;58.28
59608;BME280;45426;44.726;10.390;2023-04-04T07:02:30;100575.63;;;22.01;52.71
59608;BME280;45426;44.726;10.390;2023-04-04T07:04:55;100581.47;;;21.43;52.71
59608;BME280;45426;44.726;10.390;2023-04-04T07:07:21;100578.09;;;22.82;52.53
59608;BME280;45426;44.726;10.390;2023-04-04T07:09:46;100582.81;;;21.13;53.37
59608;BME280;45426;44.726;10.390;2023-04-04T07:12:12;100572.19;;;23.72;53.69
59608;BME280;45426;44.726;10.390;2023-04-04T07:14:37;100576.41;;;24.31;51.49
59608;BME280;45426;44.726;10.390;2023-04-04T07:17:02;100582.16;;;20.55;50.65
59608;BME280;45426;44.726;10.390;2023-04-04T07:19:28;100584.94;;;20.45;52.04
59608;BME280;45426;44.726;10.390;2023-04-04T07:21:54;100575.84;;;22.24;51.12
59608;BME280;45426;44.726;10.390;2023-04-04T07:24:19;100582.38;;;22.00;49.88
59608;BME280;45426;44.726;10.390;2023-04-04T07:26:45;100581.28;;;19.58;48.34
59608;BME280;45426;44.726;10.390;2023-04-04T07:29:11;100578.91;;;21.88;48.75
59608;BME280;45426;44.726;10.390;2023-04-04T07:31:36;100578.34;;;19.11;49.34
59608;BME280;45426;44.726;10.390;2023-04-04T07:34:02;100593.91;;;20.99;50.93
59608;BME280;45426;44.726;10.390;2023-04-04T07:36:28;100568.03;;;21.52;50.85
59608;BME280;45426;44.726;10.390;2023-04-04T07:38:53;100564.41;;;22.26;52.04
59608;BME280;45426;44.726;10.390;2023-04-04T07:41:20;100578.63;;;20.41;48.51
59608;BME280;45426;44.726;10.390;2023-04-04T07:43:45;100573.72;;;22.81;50.13
59608;BME280;45426;44.726;10.390;2023-04-04T07:46:11;100576.66;;;23.04;49.61
59608;BME280;45426;44.726;10.390;2023-04-04T07:48:37;100583.34;;;20.44;47.91
59608;BME280;45426;44.726;10.390;2023-04-04T07:51:03;100579.88;;;22.13;47.95
59608;BME280;45426;44.726;10.390;2023-04-04T07:53:29;100579.88;;;21.60;48.57
59608;BME280;45426;44.726;10.390;2023-04-04T07:55:54;100585.47;;;21.39;47.34
59608;BME280;45426;44.726;10.390;2023-04-04T07:58:20;100584.78;;;21.09;46.48
59608;BME280;45426;44.726;10.390;2023-04-04T08:00:46;100580.97;;;20.71;47.36
59608;BME280;45426;44.726;10.390;2023-04-04T08:03:12;100570.75;;;22.19;49.42
59608;BME280;45426;44.726;10.390;2023-04-04T08:05:38;100577.31;;;22.78;48.96
59608;BME280;45426;44.726;10.390;2023-04-04T08:08:03;100580.88;;;21.07;47.39
59608;BME280;45426;44.726;10.390;2023-04-04T08:10:29;100590.13;;;17.94;47.40
59608;BME280;45426;44.726;10.390;2023-04-04T08:12:55;100579.75;;;20.90;49.70
59608;BME280;45426;44.726;10.390;2023-04-04T08:15:21;100580.16;;;20.81;48.63
59608;BME280;45426;44.726;10.390;2023-04-04T08:17:46;100571.94;;;23.32;50.27
59608;BME280;45426;44.726;10.390;2023-04-04T08:20:11;100587.94;;;18.69;47.77
59608;BME280;45426;44.726;10.390;2023-04-04T08:22:39;100571.91;;;25.05;49.86
59608;BME280;45426;44.726;10.390;2023-04-04T08:25:05;100589.69;;;17.58;47.32
59608;BME280;45426;44.726;10.390;2023-04-04T08:27:30;100583.88;;;19.11;49.24
59608;BME280;45426;44.726;10.390;2023-04-04T08:29:56;100589.19;;;17.15;48.77
59608;BME280;45426;44.726;10.390;2023-04-04T08:32:22;100590.63;;;18.10;48.64
59608;BME280;45426;44.726;10.390;2023-04-04T08:34:48;100595.16;;;14.77;59.81
59608;BME280;45426;44.726;10.390;2023-04-04T08:37:13;100580.25;;;15.29;64.38
59608;BME280;45426;44.726;10.390;2023-04-04T08:39:39;100608.19;;;12.79;69.40
59608;BME280;45426;44.726;10.390;2023-04-04T08:42:05;100586.34;;;13.44;73.85
59608;BME280;45426;44.726;10.390;2023-04-04T08:44:32;100586.88;;;11.86;89.40
59608;BME280;45426;44.726;10.390;2023-04-04T08:47:00;100609.44;;;11.87;88.34
59608;BME280;45426;44.726;10.390;2023-04-04T08:49:27;100588.56;;;13.14;77.90
59608;BME280;45426;44.726;10.390;2023-04-04T08:51:55;100581.63;;;13.16;79.65
59608;BME280;45426;44.726;10.390;2023-04-04T08:54:21;100579.56;;;14.62;82.17
59608;BME280;45426;44.726;10.390;2023-04-04T08:56:49;100595.25;;;12.76;82.28
59608;BME280;45426;44.726;10.390;2023-04-04T08:59:14;100608.97;;;11.84;82.19
59608;BME280;45426;44.726;10.390;2023-04-04T09:01:43;100616.28;;;11.38;78.95
59608;BME280;45426;44.726;10.390;2023-04-04T09:04:09;100601.09;;;11.37;82.04
59608;BME280;45426;44.726;10.390;2023-04-04T09:06:35;100599.09;;;12.13;70.92
59608;BME280;45426;44.726;10.390;2023-04-04T09:09:01;100595.00;;;12.93;74.83
59608;BME280;45426;44.726;10.390;2023-04-04T09:11:30;100592.63;;;12.55;79.36
59608;BME280;45426;44.726;10.390;2023-04-04T09:13:56;100584.66;;;12.87;72.67
59608;BME280;45426;44.726;10.390;2023-04-04T09:16:22;100595.09;;;14.10;65.99
59608;BME280;45426;44.726;10.390;2023-04-04T09:18:48;100594.84;;;14.31;63.90
59608;BME280;45426;44.726;10.390;2023-04-04T09:21:14;100594.78;;;12.86;68.59
59608;BME280;45426;44.726;10.390;2023-04-04T09:23:39;100588.13;;;11.89;67.21
59608;BME280;45426;44.726;10.390;2023-04-04T09:26:05;100595.66;;;12.04;70.32
59608;BME280;45426;44.726;10.390;2023-04-04T09:28:32;100587.78;;;13.13;72.66
59608;BME280;45426;44.726;10.390;2023-04-04T09:31:02;100586.88;;;12.44;71.21
59608;BME280;45426;44.726;10.390;2023-04-04T09:33:30;100594.91;;;12.77;75.67
59608;BME280;45426;44.726;10.390;2023-04-04T09:36:05;100598.31;;;11.79;76.66
59608;BME280;45426;44.726;10.390;2023-04-04T09:38:36;100593.50;;;11.97;77.96
59608;BME280;45426;44.726;10.390;2023-04-04T09:41:05;100595.03;;;11.53;76.28
59608;BME280;45426;44.726;10.390;2023-04-04T09:43:31;100592.28;;;12.81;80.99
59608;BME280;45426;44.726;10.390;2023-04-04T09:45:59;100602.84;;;12.21;70.69
59608;BME280;45426;44.726;10.390;2023-04-04T09:48:25;100589.22;;;11.75;80.15
59608;BME280;45426;44.726;10.390;2023-04-04T09:50:51;100589.56;;;12.69;83.25
59608;BME280;45426;44.726;10.390;2023-04-04T09:53:17;100595.66;;;10.95;81.78
59608;BME280;45426;44.726;10.390;2023-04-04T09:55:48;100580.28;;;12.57;75.86
59608;BME280;45426;44.726;10.390;2023-04-04T09:58:16;100592.41;;;11.02;87.60
59608;BME280;45426;44.726;10.390;2023-04-04T10:00:46;100600.47;;;11.53;83.70
59608;BME280;45426;44.726;10.390;2023-04-04T10:03:16;100600.81;;;12.55;86.89
59608;BME280;45426;44.726;10.390;2023-04-04T10:05:44;100600.03;;;11.51;79.15
59608;BME280;45426;44.726;10.390;2023-04-04T10:08:17;100576.88;;;13.13;77.17
59608;BME280;45426;44.726;10.390;2023-04-04T10:10:48;100592.84;;;11.79;81.27
59608;BME280;45426;44.726;10.390;2023-04-04T10:13:28;100587.59;;;11.62;93.50
59608;BME280;45426;44.726;10.390;2023-04-04T10:15:54;100599.41;;;11.99;87.08
59608;BME280;45426;44.726;10.390;2023-04-04T10:18:27;100598.28;;;11.46;87.97
59608;BME280;45426;44.726;10.390;2023-04-04T10:20:54;100596.50;;;11.29;86.38
59608;BME280;45426;44.726;10.390;2023-04-04T10:23:22;100585.00;;;11.99;81.61
59608;BME280;45426;44.726;10.390;2023-04-04T10:25:49;100598.09;;;11.51;84.21
59608;BME280;45426;44.726;10.390;2023-04-04T10:28:18;100590.25;;;12.41;91.58
59608;BME280;45426;44.726;10.390;2023-04-04T10:30:54;100586.25;;;13.85;84.71
59608;BME280;45426;44.726;10.390;2023-04-04T10:33:38;100582.28;;;12.73;80.51
59608;BME280;45426;44.726;10.390;2023-04-04T10:36:06;100589.00;;;11.80;84.38
59608;BME280;45426;44.726;10.390;2023-04-04T10:38:42;100586.72;;;12.16;80.40
59608;BME280;45426;44.726;10.390;2023-04-04T10:41:10;100575.19;;;13.65;77.51
59608;BME280;45426;44.726;10.390;2023-04-04T10:43:39;100575.50;;;12.67;84.26
59608;BME280;45426;44.726;10.390;2023-04-04T10:46:14;100572.19;;;13.26;81.51
59608;BME280;45426;44.726;10.390;2023-04-04T10:48:41;100583.63;;;12.91;80.28
59608;BME280;45426;44.726;10.390;2023-04-04T10:51:09;100579.81;;;12.18;81.27
59608;BME280;45426;44.726;10.390;2023-04-04T10:53:37;100584.78;;;12.04;79.09
59608;BME280;45426;44.726;10.390;2023-04-04T10:56:04;100566.66;;;12.57;100.00
59608;BME280;45426;44.726;10.390;2023-04-04T10:58:29;100569.53;;;14.02;83.34
59608;BME280;45426;44.726;10.390;2023-04-04T11:00:55;100572.94;;;12.86;74.42
59608;BME280;45426;44.726;10.390;2023-04-04T11:03:21;100580.41;;;12.36;80.93
59608;BME280;45426;44.726;10.390;2023-04-04T11:05:48;100576.41;;;12.71;80.44
59608;BME280;45426;44.726;10.390;2023-04-04T11:08:17;100577.22;;;13.52;88.82
59608;BME280;45426;44.726;10.390;2023-04-04T11:10:52;100567.22;;;12.63;77.45
59608;BME280;45426;44.726;10.390;2023-04-04T11:13:24;100567.69;;;14.06;79.94
59608;BME280;45426;44.726;10.390;2023-04-04T11:15:57;100562.81;;;13.84;84.28
59608;BME280;45426;44.726;10.390;2023-04-04T11:20:55;100561.19;;;14.78;100.00
59608;BME280;45426;44.726;10.390;2023-04-04T11:23:21;100567.53;;;14.31;99.28
59608;BME280;45426;44.726;10.390;2023-04-04T11:25:52;100563.16;;;12.97;86.24
59608;BME280;45426;44.726;10.390;2023-04-04T11:28:42;100559.59;;;14.26;93.46
59608;BME280;45426;44.726;10.390;2023-04-04T11:34:04;100557.00;;;14.65;90.21
59608;BME280;45426;44.726;10.390;2023-04-04T11:39:06;100541.78;;;12.99;88.36
59608;BME280;45426;44.726;10.390;2023-04-04T11:42:06;100533.78;;;14.07;83.04
59608;BME280;45426;44.726;10.390;2023-04-04T11:44:41;100541.84;;;12.87;96.93
59608;BME280;45426;44.726;10.390;2023-04-04T11:47:10;100544.84;;;13.98;92.52
59608;BME280;45426;44.726;10.390;2023-04-04T11:49:38;100541.22;;;14.42;84.80
59608;BME280;45426;44.726;10.390;2023-04-04T11:52:09;100538.19;;;13.52;84.04
59608;BME280;45426;44.726;10.390;2023-04-04T11:54:37;100535.94;;;12.85;90.02
59608;BME280;45426;44.726;10.390;2023-04-04T11:57:05;100543.94;;;12.41;91.59
59608;BME280;45426;44.726;10.390;2023-04-04T11:59:31;100536.59;;;12.94;91.85
59608;BME280;45426;44.726;10.390;2023-04-04T12:01:56;100529.66;;;14.49;100.00
59608;BME280;45426;44.726;10.390;2023-04-04T12:04:24;100539.91;;;13.56;80.45
59608;BME280;45426;44.726;10.390;2023-04-04T12:06:52;100529.97;;;14.28;79.46
59608;BME280;45426;44.726;10.390;2023-04-04T12:09:18;100532.78;;;12.71;75.77
59608;BME280;45426;44.726;10.390;2023-04-04T12:11:46;100542.59;;;12.10;75.16
59608;BME280;45426;44.726;10.390;2023-04-04T12:14:18;100537.38;;;13.79;78.04
59608;BME280;45426;44.726;10.390;2023-04-04T12:16:47;100528.56;;;13.14;74.80
59608;BME280;45426;44.726;10.390;2023-04-04T12:19:12;100518.34;;;13.99;74.62
59608;BME280;45426;44.726;10.390;2023-04-04T12:21:38;100523.19;;;14.06;74.88
59608;BME280;45426;44.726;10.390;2023-04-04T12:24:08;100520.25;;;12.94;67.31
59608;BME280;45426;44.726;10.390;2023-04-04T12:26:36;100509.53;;;13.30;70.43
59608;BME280;45426;44.726;10.390;2023-04-04T12:29:02;100520.53;;;12.65;68.06
59608;BME280;45426;44.726;10.390;2023-04-04T12:31:28;100514.31;;;12.39;66.17
59608;BME280;45426;44.726;10.390;2023-04-04T12:33:54;100507.63;;;12.12;66.22
59608;BME280;45426;44.726;10.390;2023-04-04T12:36:19;100506.31;;;11.27;65.95
59608;BME280;45426;44.726;10.390;2023-04-04T12:39:08;100493.66;;;13.19;75.89
59608;BME280;45426;44.726;10.390;2023-04-04T12:41:46;100488.19;;;13.48;64.38
59608;BME280;45426;44.726;10.390;2023-04-04T12:44:30;100499.59;;;13.66;68.96
59608;BME280;45426;44.726;10.390;2023-04-04T12:46:58;100490.75;;;12.72;67.37